createdAt,value
2022-10-10T00:01:27.267Z,100879.72
2022-10-10T00:03:55.063Z,100874.75
2022-10-10T00:06:22.989Z,100874.41
2022-10-10T00:08:50.932Z,100867.53
2022-10-10T00:11:19.796Z,100862.41
2022-10-10T00:13:49.239Z,100866.72
2022-10-10T00:16:17.603Z,100859.19
2022-10-10T00:18:45.233Z,100857.66
2022-10-10T00:21:13.065Z,100857.00
2022-10-10T00:23:40.853Z,100853.13
2022-10-10T00:26:09.402Z,100852.97
2022-10-10T00:28:38.408Z,100843.00
2022-10-10T00:31:08.821Z,100841.66
2022-10-10T00:33:36.820Z,100846.16
2022-10-10T00:36:04.557Z,100846.72
2022-10-10T00:38:32.603Z,100851.19
2022-10-10T00:41:00.342Z,100847.53
2022-10-10T00:43:28.411Z,100845.03
2022-10-10T00:45:56.335Z,100843.25
2022-10-10T00:48:26.449Z,100847.59
2022-10-10T00:50:56.798Z,100840.63
2022-10-10T00:53:27.750Z,100838.75
2022-10-10T00:55:55.674Z,100831.84
2022-10-10T00:58:23.826Z,100826.78
2022-10-10T01:00:51.802Z,100835.75
2022-10-10T01:03:19.533Z,100834.06
2022-10-10T01:05:48.841Z,100832.59
2022-10-10T01:08:17.374Z,100835.09
2022-10-10T01:10:55.816Z,100824.84
2022-10-10T01:13:29.518Z,100832.41
2022-10-10T01:16:01.354Z,100830.13
2022-10-10T01:18:34.778Z,100828.44
2022-10-10T01:21:10.154Z,100822.75
2022-10-10T01:24:19.082Z,100825.88
2022-10-10T01:27:11.399Z,100824.72
2022-10-10T01:29:43.816Z,100822.81
2022-10-10T01:32:15.618Z,100818.72
2022-10-10T01:34:50.783Z,100814.66
2022-10-10T01:37:20.070Z,100829.22
2022-10-10T01:39:55.700Z,100813.88
2022-10-10T01:42:26.904Z,100809.56
2022-10-10T01:44:56.235Z,100808.56
2022-10-10T01:47:24.239Z,100800.94
2022-10-10T01:49:54.566Z,100802.47
2022-10-10T01:52:31.233Z,100797.72
2022-10-10T01:55:10.053Z,100798.25
2022-10-10T01:57:44.648Z,100792.63
2022-10-10T02:00:14.792Z,100788.28
2022-10-10T02:02:46.444Z,100786.75
2022-10-10T02:05:19.072Z,100775.97
2022-10-10T02:07:50.257Z,100774.09
2022-10-10T02:10:23.138Z,100777.50
2022-10-10T02:12:51.436Z,100771.53
2022-10-10T02:15:23.215Z,100771.03
2022-10-10T02:17:51.412Z,100775.28
2022-10-10T02:20:22.116Z,100763.75
2022-10-10T02:22:51.455Z,100771.13
2022-10-10T02:25:24.080Z,100766.13
2022-10-10T02:27:58.972Z,100768.91
2022-10-10T02:30:28.074Z,100762.81
2022-10-10T02:32:59.055Z,100763.66
2022-10-10T02:35:31.347Z,100759.06
2022-10-10T02:37:59.955Z,100757.38
2022-10-10T02:40:29.984Z,100753.28
2022-10-10T02:42:59.634Z,100744.56
2022-10-10T02:45:30.928Z,100739.94
2022-10-10T02:47:58.676Z,100735.53
2022-10-10T02:50:26.945Z,100734.69
2022-10-10T02:52:54.871Z,100729.75
2022-10-10T02:55:22.496Z,100729.50
2022-10-10T02:57:50.110Z,100727.28
2022-10-10T03:00:18.126Z,100723.03
2022-10-10T03:02:47.130Z,100719.34
2022-10-10T03:05:15.258Z,100719.44
2022-10-10T03:07:42.799Z,100710.13
2022-10-10T03:10:10.819Z,100716.44
2022-10-10T03:12:38.421Z,100718.94
2022-10-10T03:15:11.389Z,100715.19
2022-10-10T03:17:39.386Z,100717.66
2022-10-10T03:20:09.654Z,100704.75
2022-10-10T03:22:37.143Z,100718.47
2022-10-10T03:25:05.601Z,100714.94
2022-10-10T03:27:33.134Z,100712.03
2022-10-10T03:30:00.705Z,100709.56
2022-10-10T03:32:28.237Z,100712.72
2022-10-10T03:34:55.808Z,100717.97
2022-10-10T03:37:24.875Z,100709.66
2022-10-10T03:39:52.503Z,100717.50
2022-10-10T03:42:20.031Z,100707.28
2022-10-10T03:44:47.535Z,100702.38
2022-10-10T03:47:15.043Z,100698.97
2022-10-10T03:49:42.536Z,100703.22
2022-10-10T03:52:10.055Z,100703.94
2022-10-10T03:54:39.022Z,100704.88
2022-10-10T03:57:06.587Z,100703.28
2022-10-10T03:59:34.113Z,100701.59
2022-10-10T04:02:01.641Z,100702.78
2022-10-10T04:04:29.160Z,100698.69
2022-10-10T04:06:56.669Z,100691.47
2022-10-10T04:09:24.225Z,100689.53
2022-10-10T04:11:53.141Z,100689.78
2022-10-10T04:14:20.751Z,100682.75
2022-10-10T04:16:48.355Z,100684.53
2022-10-10T04:19:15.885Z,100688.66
2022-10-10T04:21:43.417Z,100683.22
2022-10-10T04:24:11.457Z,100690.44
2022-10-10T04:26:38.965Z,100693.25
2022-10-10T04:29:08.300Z,100691.25
2022-10-10T04:31:35.915Z,100695.34
2022-10-10T04:34:03.844Z,100692.28
2022-10-10T04:36:31.854Z,100695.94
2022-10-10T04:38:59.375Z,100693.50
2022-10-10T04:41:26.895Z,100690.75
2022-10-10T04:43:54.424Z,100690.34
2022-10-10T04:46:23.291Z,100691.25
2022-10-10T04:48:50.872Z,100691.06
2022-10-10T04:51:19.680Z,100693.50
2022-10-10T04:53:50.440Z,100698.50
2022-10-10T04:56:18.358Z,100693.63
2022-10-10T04:58:45.869Z,100693.50
2022-10-10T05:01:13.488Z,100690.09
2022-10-10T05:03:42.372Z,100685.22
2022-10-10T05:06:10.264Z,100689.97
2022-10-10T05:08:37.858Z,100691.56
2022-10-10T05:11:05.464Z,100682.13
2022-10-10T05:13:33.098Z,100680.25
2022-10-10T05:16:01.110Z,100686.34
2022-10-10T05:18:28.618Z,100683.63
2022-10-10T05:21:03.258Z,100676.16
2022-10-10T05:23:31.954Z,100670.94
2022-10-10T05:25:59.488Z,100673.22
2022-10-10T05:28:27.203Z,100677.97
2022-10-10T05:30:54.723Z,100672.88
2022-10-10T05:33:22.319Z,100672.75
2022-10-10T05:35:49.899Z,100666.25
2022-10-10T05:38:18.900Z,100660.16
2022-10-10T05:40:46.416Z,100664.03
2022-10-10T05:43:13.948Z,100654.66
2022-10-10T05:45:41.448Z,100662.06
2022-10-10T05:48:08.985Z,100654.47
2022-10-10T05:50:38.823Z,100664.22
2022-10-10T05:53:06.744Z,100660.75
2022-10-10T05:55:36.565Z,100661.41
2022-10-10T05:58:04.118Z,100663.16
2022-10-10T06:00:31.665Z,100663.56
2022-10-10T06:02:59.325Z,100663.41
2022-10-10T06:05:26.947Z,100663.75
2022-10-10T06:08:12.213Z,100667.88
2022-10-10T06:10:43.131Z,100663.13
2022-10-10T06:13:11.013Z,100674.31
2022-10-10T06:15:38.544Z,100663.19
2022-10-10T06:18:07.419Z,100667.72
2022-10-10T06:20:35.806Z,100670.09
2022-10-10T06:23:03.684Z,100663.81
2022-10-10T06:25:43.446Z,100665.38
2022-10-10T06:28:13.095Z,100668.53
2022-10-10T06:30:41.573Z,100670.81
2022-10-10T06:33:09.162Z,100668.41
2022-10-10T06:35:39.972Z,100666.50
2022-10-10T06:38:07.481Z,100670.56
2022-10-10T06:40:35.056Z,100673.09
2022-10-10T06:43:04.452Z,100665.28
2022-10-10T06:45:36.795Z,100670.13
2022-10-10T06:48:04.577Z,100675.56
2022-10-10T06:50:32.075Z,100671.19
2022-10-10T06:53:00.108Z,100676.94
2022-10-10T06:55:27.759Z,100677.22
2022-10-10T06:57:55.415Z,100680.69
2022-10-10T07:00:22.976Z,100678.03
2022-10-10T07:02:52.602Z,100681.13
2022-10-10T07:05:20.346Z,100673.72
2022-10-10T07:07:47.891Z,100677.81
2022-10-10T07:10:16.567Z,100680.22
2022-10-10T07:12:45.167Z,100683.97
2022-10-10T07:15:13.408Z,100683.97
2022-10-10T07:17:40.972Z,100685.13
2022-10-10T07:20:10.661Z,100676.97
2022-10-10T07:22:38.412Z,100673.88
2022-10-10T07:25:06.664Z,100680.47
2022-10-10T07:27:34.200Z,100689.84
2022-10-10T07:30:01.686Z,100685.75
2022-10-10T07:32:29.224Z,100677.16
2022-10-10T07:34:58.276Z,100683.13
2022-10-10T07:37:27.397Z,100688.34
2022-10-10T07:39:55.011Z,100693.28
2022-10-10T07:42:22.729Z,100691.56
2022-10-10T07:44:50.315Z,100696.34
2022-10-10T07:47:17.881Z,100695.31
2022-10-10T07:49:45.499Z,100689.53
2022-10-10T07:52:13.036Z,100690.31
2022-10-10T07:54:42.633Z,100682.91
2022-10-10T07:57:10.306Z,100693.44
2022-10-10T07:59:37.839Z,100695.22
2022-10-10T08:02:05.460Z,100697.41
2022-10-10T08:04:33.035Z,100694.09
2022-10-10T08:07:00.646Z,100697.66
2022-10-10T08:09:28.578Z,100689.38
2022-10-10T08:11:57.447Z,100703.84
2022-10-10T08:14:25.068Z,100689.50
2022-10-10T08:16:52.583Z,100694.81
2022-10-10T08:19:20.107Z,100708.66
2022-10-10T08:21:47.625Z,100705.06
2022-10-10T08:24:15.145Z,100695.34
2022-10-10T08:26:42.676Z,100704.31
2022-10-10T08:29:11.527Z,100705.91
2022-10-10T08:31:39.112Z,100709.03
2022-10-10T08:34:06.651Z,100704.09
2022-10-10T08:36:34.199Z,100696.06
2022-10-10T08:39:01.809Z,100704.69
2022-10-10T08:41:36.470Z,100701.75
2022-10-10T08:44:07.151Z,100701.66
2022-10-10T08:46:38.160Z,100705.06
2022-10-10T08:49:14.218Z,100689.66
2022-10-10T08:51:43.104Z,100697.69
2022-10-10T08:54:12.508Z,100699.47
2022-10-10T08:56:40.859Z,100697.13
2022-10-10T08:59:13.240Z,100692.81
2022-10-10T09:02:18.593Z,100699.81
2022-10-10T09:04:33.453Z,100700.38
2022-10-10T09:07:12.321Z,100697.47
2022-10-10T09:09:45.328Z,100697.38
2022-10-10T09:12:19.352Z,100695.66
2022-10-10T09:14:52.450Z,100695.88
2022-10-10T09:17:35.350Z,100691.72
2022-10-10T09:20:13.261Z,100699.81
2022-10-10T09:22:45.974Z,100698.50
2022-10-10T09:25:17.898Z,100696.31
2022-10-10T09:27:57.179Z,100712.03
2022-10-10T09:30:25.297Z,100693.22
2022-10-10T09:32:57.459Z,100695.16
2022-10-10T09:35:26.758Z,100699.69
2022-10-10T09:37:58.412Z,100696.13
2022-10-10T09:40:28.684Z,100701.09
2022-10-10T09:42:57.137Z,100702.75
2022-10-10T09:45:28.449Z,100710.81
2022-10-10T09:47:57.366Z,100715.50
2022-10-10T09:50:25.655Z,100703.63
2022-10-10T09:52:53.887Z,100710.09
2022-10-10T09:55:26.879Z,100704.44
2022-10-10T09:57:56.592Z,100687.66
2022-10-10T10:00:30.616Z,100690.66
2022-10-10T10:03:16.985Z,100699.97
2022-10-10T10:05:55.502Z,100699.34
2022-10-10T10:08:26.167Z,100700.28
2022-10-10T10:10:57.888Z,100707.81
2022-10-10T10:13:28.490Z,100711.88
2022-10-10T10:16:05.099Z,100712.34
2022-10-10T10:18:39.894Z,100707.88
2022-10-10T10:21:14.865Z,100709.38
2022-10-10T10:23:44.555Z,100707.03
2022-10-10T10:26:18.934Z,100719.66
2022-10-10T10:28:47.935Z,100714.16
2022-10-10T10:31:21.612Z,100713.63
2022-10-10T10:33:56.955Z,100720.19
2022-10-10T10:36:35.972Z,100720.19
2022-10-10T10:39:13.096Z,100722.16
2022-10-10T10:41:45.421Z,100722.28
2022-10-10T10:44:19.633Z,100709.03
2022-10-10T10:46:53.053Z,100722.31
2022-10-10T10:49:37.464Z,100715.63
2022-10-10T10:52:27.391Z,100719.50
2022-10-10T10:55:05.279Z,100711.06
2022-10-10T10:58:00.038Z,100700.50
2022-10-10T11:05:19.508Z,100719.19
2022-10-10T11:06:24.856Z,100720.50
2022-10-10T11:09:02.152Z,100728.63
2022-10-10T11:11:38.140Z,100731.03
2022-10-10T11:14:16.423Z,100727.84
2022-10-10T11:16:48.929Z,100728.72
2022-10-10T11:19:23.920Z,100732.41
2022-10-10T11:21:57.319Z,100736.59
2022-10-10T11:24:30.822Z,100733.28
2022-10-10T11:27:02.642Z,100739.66
2022-10-10T11:29:32.788Z,100737.34
2022-10-10T11:32:04.635Z,100726.50
2022-10-10T11:34:34.624Z,100731.28
2022-10-10T11:37:06.976Z,100729.78
2022-10-10T11:39:38.009Z,100720.63
2022-10-10T11:42:08.894Z,100741.06
2022-10-10T11:44:40.028Z,100741.25
2022-10-10T11:47:13.225Z,100735.91
2022-10-10T11:49:48.356Z,100732.38
2022-10-10T11:52:33.472Z,100737.81
2022-10-10T11:55:06.246Z,100741.56
2022-10-10T11:57:37.866Z,100736.66
2022-10-10T12:00:07.239Z,100748.94
2022-10-10T12:02:37.196Z,100751.25
2022-10-10T12:05:06.408Z,100742.88
2022-10-10T12:07:41.277Z,100743.97
2022-10-10T12:10:11.500Z,100753.66
2022-10-10T12:12:41.304Z,100742.34
2022-10-10T12:15:10.727Z,100747.16
2022-10-10T12:17:42.495Z,100751.47
2022-10-10T12:20:26.273Z,100755.50
2022-10-10T12:23:10.051Z,100754.63
2022-10-10T12:25:42.121Z,100757.19
2022-10-10T12:28:25.599Z,100765.88
2022-10-10T12:31:19.982Z,100756.19
2022-10-10T12:34:05.946Z,100756.19
2022-10-10T12:36:58.201Z,100749.03
2022-10-10T12:39:40.669Z,100747.38
2022-10-10T12:42:37.667Z,100748.09
2022-10-10T12:45:09.729Z,100748.00
2022-10-10T12:48:03.960Z,100747.25
2022-10-10T12:50:34.300Z,100751.81
2022-10-10T12:53:04.141Z,100755.78
2022-10-10T12:55:40.339Z,100745.91
2022-10-10T12:58:20.881Z,100757.66
2022-10-10T13:00:54.814Z,100750.41
2022-10-10T13:03:27.909Z,100760.88
2022-10-10T13:05:55.877Z,100755.56
2022-10-10T13:08:25.927Z,100743.63
2022-10-10T13:11:06.789Z,100737.56
2022-10-10T13:13:34.481Z,100750.13
2022-10-10T13:16:07.950Z,100751.78
2022-10-10T13:18:37.007Z,100756.91
2022-10-10T13:21:06.492Z,100764.03
2022-10-10T13:23:36.322Z,100760.91
2022-10-10T13:26:06.619Z,100760.31
2022-10-10T13:28:34.294Z,100760.47
2022-10-10T13:31:02.100Z,100769.66
2022-10-10T13:33:33.451Z,100764.81
2022-10-10T13:36:06.597Z,100772.03
2022-10-10T13:38:34.786Z,100783.16
2022-10-10T13:41:05.526Z,100781.31
2022-10-10T13:43:34.268Z,100791.19
2022-10-10T13:46:03.588Z,100797.47
2022-10-10T13:48:40.817Z,100796.63
2022-10-10T13:51:10.906Z,100803.91
2022-10-10T13:53:59.342Z,100812.91
2022-10-10T13:56:30.699Z,100804.09
2022-10-10T13:59:00.143Z,100812.31
2022-10-10T14:01:34.577Z,100820.50
2022-10-10T14:04:21.032Z,100824.63
2022-10-10T14:06:51.772Z,100836.59
2022-10-10T14:09:22.297Z,100840.22
2022-10-10T14:11:52.501Z,100840.44
2022-10-10T14:14:22.750Z,100841.72
2022-10-10T14:16:59.579Z,100848.91
2022-10-10T14:19:27.137Z,100856.16
2022-10-10T14:21:54.843Z,100852.09
2022-10-10T14:24:22.351Z,100864.78
2022-10-10T14:26:51.203Z,100858.19
2022-10-10T14:29:19.218Z,100868.28
2022-10-10T14:31:47.259Z,100884.50
2022-10-10T14:34:15.757Z,100877.25
2022-10-10T14:36:47.533Z,100885.13
2022-10-10T14:39:16.055Z,100891.28
2022-10-10T14:41:43.590Z,100888.22
2022-10-10T14:44:12.940Z,100894.22
2022-10-10T14:46:41.019Z,100903.56
2022-10-10T14:49:16.102Z,100908.09
2022-10-10T14:51:43.595Z,100915.31
2022-10-10T14:54:14.091Z,100925.81
2022-10-10T14:57:08.426Z,100918.09
2022-10-10T14:59:47.955Z,100925.84
2022-10-10T15:02:18.244Z,100926.59
2022-10-10T15:04:45.757Z,100945.75
2022-10-10T15:07:14.966Z,100990.50
2022-10-10T15:09:56.587Z,100966.94
2022-10-10T15:12:30.351Z,100986.16
2022-10-10T15:14:59.233Z,100983.91
2022-10-10T15:17:27.139Z,100993.28
2022-10-10T15:19:54.687Z,101009.97
2022-10-10T15:22:22.314Z,101004.22
2022-10-10T15:24:49.827Z,101015.66
2022-10-10T15:27:17.309Z,101043.41
2022-10-10T15:29:44.795Z,101041.81
2022-10-10T15:32:13.671Z,101036.59
2022-10-10T15:34:41.184Z,101043.94
2022-10-10T15:37:10.384Z,101037.19
2022-10-10T15:39:38.318Z,101038.94
2022-10-10T15:42:12.217Z,101043.41
2022-10-10T15:44:45.259Z,101042.06
2022-10-10T15:47:14.649Z,101043.22
2022-10-10T15:49:42.220Z,101036.66
2022-10-10T15:52:10.478Z,101040.16
2022-10-10T15:54:37.975Z,101047.13
2022-10-10T15:57:05.541Z,101051.16
2022-10-10T15:59:33.102Z,101053.00
2022-10-10T16:02:00.642Z,101063.25
2022-10-10T16:04:29.553Z,101072.75
2022-10-10T16:07:24.141Z,101079.22
2022-10-10T16:09:45.084Z,101073.59
2022-10-10T16:12:12.610Z,101090.72
2022-10-10T16:14:40.122Z,101088.25
2022-10-10T16:17:07.791Z,101088.38
2022-10-10T16:19:36.623Z,101110.06
2022-10-10T16:22:04.142Z,101107.16
2022-10-10T16:24:31.668Z,101116.13
2022-10-10T16:27:02.058Z,101117.22
2022-10-10T16:29:29.592Z,101125.59
2022-10-10T16:31:57.101Z,101119.34
2022-10-10T16:34:24.601Z,101121.78
2022-10-10T16:36:53.517Z,101132.47
2022-10-10T16:39:21.041Z,101136.78
2022-10-10T16:41:49.313Z,101142.44
2022-10-10T16:44:17.307Z,101144.53
2022-10-10T16:46:44.925Z,101146.25
2022-10-10T16:49:16.128Z,101150.00
2022-10-10T16:51:44.209Z,101163.41
2022-10-10T16:54:13.103Z,101163.88
2022-10-10T16:56:41.758Z,101165.97
2022-10-10T16:59:09.320Z,101179.78
2022-10-10T17:01:36.917Z,101181.44
2022-10-10T17:04:04.929Z,101201.44
2022-10-10T17:06:37.207Z,101203.16
2022-10-10T17:09:07.048Z,101206.25
2022-10-10T17:11:35.957Z,101211.06
2022-10-10T17:14:04.012Z,101215.72
2022-10-10T17:17:07.133Z,101215.78
2022-10-10T17:19:19.421Z,101221.16
2022-10-10T17:21:46.935Z,101222.63
2022-10-10T17:24:14.430Z,101236.16
2022-10-10T17:26:43.293Z,101234.38
2022-10-10T17:29:11.221Z,101236.56
2022-10-10T17:31:38.792Z,101240.00
2022-10-10T17:34:06.359Z,101249.81
2022-10-10T17:36:33.870Z,101244.50
2022-10-10T17:39:01.375Z,101252.53
2022-10-10T17:41:29.657Z,101266.94
2022-10-10T17:43:58.576Z,101264.50
2022-10-10T17:46:34.751Z,101268.16
2022-10-10T17:49:03.808Z,101265.94
2022-10-10T17:51:31.407Z,101282.13
2022-10-10T17:53:59.761Z,101290.03
2022-10-10T17:56:27.688Z,101287.03
2022-10-10T17:58:55.235Z,101280.78
2022-10-10T18:01:24.236Z,101289.16
2022-10-10T18:03:52.097Z,101305.09
2022-10-10T18:06:21.368Z,101307.91
2022-10-10T18:08:49.632Z,101320.09
2022-10-10T18:11:18.413Z,101326.38
2022-10-10T18:13:46.301Z,101322.16
2022-10-10T18:16:15.717Z,101324.81
2022-10-10T18:18:50.337Z,101332.31
2022-10-10T18:21:19.563Z,101329.47
2022-10-10T18:23:47.090Z,101336.81
2022-10-10T18:26:16.224Z,101334.34
2022-10-10T18:28:44.618Z,101336.44
2022-10-10T18:31:14.321Z,101346.00
2022-10-10T18:33:44.032Z,101342.22
2022-10-10T18:36:13.848Z,101352.72
2022-10-10T18:38:41.356Z,101354.25
2022-10-10T18:41:10.620Z,101351.63
2022-10-10T18:43:39.599Z,101358.59
2022-10-10T18:46:09.002Z,101357.75
2022-10-10T18:48:38.422Z,101358.59
2022-10-10T18:51:07.676Z,101359.34
2022-10-10T18:53:37.999Z,101364.41
2022-10-10T18:56:06.754Z,101363.06
2022-10-10T18:58:36.819Z,101368.94
2022-10-10T19:01:08.677Z,101374.06
2022-10-10T19:03:36.993Z,101379.31
2022-10-10T19:06:05.919Z,101383.44
2022-10-10T19:08:34.540Z,101382.69
2022-10-10T19:11:05.320Z,101390.50
2022-10-10T19:13:33.859Z,101390.41
2022-10-10T19:16:05.114Z,101396.66
2022-10-10T19:18:32.724Z,101404.00
2022-10-10T19:21:00.596Z,101408.56
2022-10-10T19:23:28.354Z,101407.81
2022-10-10T19:25:56.112Z,101415.97
2022-10-10T19:28:24.967Z,101410.06
2022-10-10T19:30:52.498Z,101418.69
2022-10-10T19:33:20.023Z,101424.53
2022-10-10T19:35:49.873Z,101430.69
2022-10-10T19:38:19.875Z,101441.41
2022-10-10T19:40:48.565Z,101430.81
2022-10-10T19:43:18.474Z,101439.69
2022-10-10T19:45:48.737Z,101439.09
2022-10-10T19:48:16.898Z,101437.72
2022-10-10T19:50:45.296Z,101441.34
2022-10-10T19:53:14.494Z,101442.50
2022-10-10T19:55:42.137Z,101448.03
2022-10-10T19:58:09.756Z,101463.31
2022-10-10T20:00:38.327Z,101461.75
2022-10-10T20:03:07.199Z,101460.31
2022-10-10T20:05:34.775Z,101468.13
2022-10-10T20:08:02.270Z,101470.50
2022-10-10T20:10:29.788Z,101469.56
2022-10-10T20:12:57.471Z,101475.53
2022-10-10T20:15:24.976Z,101481.78
2022-10-10T20:17:52.452Z,101483.69
2022-10-10T20:20:21.307Z,101485.75
2022-10-10T20:22:48.799Z,101482.31
2022-10-10T20:25:16.340Z,101485.94
2022-10-10T20:27:43.824Z,101491.00
2022-10-10T20:30:12.315Z,101498.50
2022-10-10T20:32:39.949Z,101499.78
2022-10-10T20:35:08.041Z,101510.31
2022-10-10T20:37:36.907Z,101510.06
2022-10-10T20:40:04.863Z,101505.75
2022-10-10T20:42:32.377Z,101520.84
2022-10-10T20:44:59.888Z,101517.75
2022-10-10T20:47:27.375Z,101521.84
2022-10-10T20:49:55.225Z,101523.94
2022-10-10T20:52:22.783Z,101529.13
2022-10-10T20:54:51.607Z,101531.94
2022-10-10T20:57:19.179Z,101535.09
2022-10-10T20:59:46.671Z,101539.84
2022-10-10T21:02:19.122Z,101542.31
2022-10-10T21:04:47.068Z,101544.38
2022-10-10T21:07:14.979Z,101549.38
2022-10-10T21:09:42.502Z,101553.47
2022-10-10T21:12:11.348Z,101558.72
2022-10-10T21:14:38.846Z,101557.66
2022-10-10T21:17:06.352Z,101569.88
2022-10-10T21:19:33.840Z,101567.97
2022-10-10T21:22:01.413Z,101561.97
2022-10-10T21:24:28.940Z,101575.03
2022-10-10T21:26:56.479Z,101576.78
2022-10-10T21:29:25.351Z,101574.34
2022-10-10T21:31:53.064Z,101577.31
2022-10-10T21:34:20.557Z,101573.09
2022-10-10T21:36:48.140Z,101584.19
2022-10-10T21:39:15.942Z,101579.56
2022-10-10T21:41:43.476Z,101581.31
2022-10-10T21:44:11.114Z,101591.03
2022-10-10T21:46:39.990Z,101581.31
2022-10-10T21:49:09.954Z,101588.53
2022-10-10T21:51:39.145Z,101590.50
2022-10-10T21:54:07.504Z,101600.66
2022-10-10T21:56:35.258Z,101591.97
2022-10-10T21:59:02.880Z,101593.91
2022-10-10T22:01:32.658Z,101607.00
2022-10-10T22:04:02.572Z,101608.00
2022-10-10T22:06:30.442Z,101608.69
2022-10-10T22:08:59.579Z,101599.34
2022-10-10T22:11:28.633Z,101607.19
2022-10-10T22:13:56.148Z,101606.63
2022-10-10T22:16:23.753Z,101605.75
2022-10-10T22:18:54.371Z,101612.25
2022-10-10T22:21:25.706Z,101606.94
2022-10-10T22:23:57.067Z,101614.75
2022-10-10T22:26:24.577Z,101621.50
2022-10-10T22:28:52.155Z,101627.97
2022-10-10T22:31:20.041Z,101641.75
2022-10-10T22:33:47.551Z,101640.81
2022-10-10T22:36:15.385Z,101636.34
2022-10-10T22:38:45.576Z,101637.97
2022-10-10T22:41:13.536Z,101639.84
2022-10-10T22:43:41.322Z,101636.56
2022-10-10T22:46:09.517Z,101644.50
2022-10-10T22:48:37.426Z,101652.28
2022-10-10T22:51:07.175Z,101648.69
2022-10-10T22:53:34.981Z,101651.06
2022-10-10T22:56:04.592Z,101653.53
2022-10-10T22:58:32.996Z,101655.47
2022-10-10T23:01:04.282Z,101651.09
2022-10-10T23:03:31.821Z,101658.06
2022-10-10T23:05:59.388Z,101652.78
2022-10-10T23:08:26.908Z,101657.13
2022-10-10T23:10:54.531Z,101656.97
2022-10-10T23:13:23.433Z,101659.25
2022-10-10T23:15:50.968Z,101664.38
2022-10-10T23:18:18.454Z,101661.25
2022-10-10T23:20:46.456Z,101668.00
2022-10-10T23:23:14.162Z,101670.44
2022-10-10T23:25:41.824Z,101674.22
2022-10-10T23:28:09.576Z,101676.22
2022-10-10T23:30:40.238Z,101678.56
2022-10-10T23:33:07.903Z,101672.13
2022-10-10T23:35:35.804Z,101671.28
2022-10-10T23:38:03.358Z,101675.00
2022-10-10T23:40:32.676Z,101676.56
2022-10-10T23:43:00.599Z,101681.94
2022-10-10T23:45:28.100Z,101678.56
2022-10-10T23:47:56.956Z,101687.03
2022-10-10T23:50:24.491Z,101680.22
2022-10-10T23:52:51.985Z,101688.91
2022-10-10T23:55:19.511Z,101684.38
2022-10-10T23:57:47.353Z,101692.16
